createdAt,value
2023-03-26T00:01:23.944Z,98849.97
2023-03-26T00:03:53.946Z,98855.34
2023-03-26T00:06:25.771Z,98838.38
2023-03-26T00:08:53.424Z,98838.91
2023-03-26T00:11:22.201Z,98826.84
2023-03-26T00:13:49.296Z,98828.44
2023-03-26T00:16:18.265Z,98827.84
2023-03-26T00:18:47.348Z,98829.22
2023-03-26T00:21:17.119Z,98817.44
2023-03-26T00:23:44.387Z,98819.84
2023-03-26T00:26:11.382Z,98818.44
2023-03-26T00:28:40.630Z,98812.28
2023-03-26T00:31:11.288Z,98811.47
2023-03-26T00:33:40.669Z,98800.91
2023-03-26T00:36:10.821Z,98798.13
2023-03-26T00:38:39.174Z,98793.72
2023-03-26T00:41:25.707Z,98793.72
2023-03-26T00:43:56.437Z,98782.19
2023-03-26T00:46:24.873Z,98776.69
2023-03-26T00:48:51.607Z,98776.41
2023-03-26T00:51:20.666Z,98772.63
2023-03-26T00:53:49.278Z,98762.84
2023-03-26T00:56:16.594Z,98748.28
2023-03-26T00:58:43.475Z,98753.06
2023-03-26T01:01:14.063Z,98737.41
2023-03-26T01:03:50.184Z,98734.59
2023-03-26T01:06:32.943Z,98731.34
2023-03-26T01:09:05.628Z,98725.94
2023-03-26T01:11:34.845Z,98723.75
2023-03-26T01:14:14.766Z,98726.44
2023-03-26T01:16:45.158Z,98728.53
2023-03-26T01:19:47.824Z,98727.53
2023-03-26T01:22:20.965Z,98719.97
2023-03-26T01:24:53.281Z,98716.16
2023-03-26T01:27:24.552Z,98707.59
2023-03-26T01:30:12.932Z,98704.41
2023-03-26T01:32:59.155Z,98689.00
2023-03-26T01:35:51.265Z,98686.91
2023-03-26T01:38:29.590Z,98674.84
2023-03-26T01:41:04.735Z,98681.81
2023-03-26T01:43:54.418Z,98672.63
2023-03-26T01:46:23.934Z,98660.69
2023-03-26T01:48:51.409Z,98656.78
2023-03-26T01:51:33.868Z,98647.88
2023-03-26T01:54:04.012Z,98651.88
2023-03-26T01:56:42.870Z,98642.69
2023-03-26T01:59:24.284Z,98645.88
2023-03-26T02:01:54.939Z,98636.09
2023-03-26T02:04:39.832Z,98627.94
2023-03-26T02:07:14.860Z,98615.44
2023-03-26T02:09:49.979Z,98620.84
2023-03-26T02:12:18.488Z,98604.06
2023-03-26T02:14:46.008Z,98598.38
2023-03-26T02:17:12.695Z,98601.56
2023-03-26T02:19:42.271Z,98592.38
2023-03-26T02:22:15.775Z,98585.56
2023-03-26T02:24:43.691Z,98587.16
2023-03-26T02:27:12.349Z,98584.94
2023-03-26T02:29:39.999Z,98568.75
2023-03-26T02:32:08.211Z,98574.16
2023-03-26T02:34:34.808Z,98564.47
2023-03-26T02:37:01.373Z,98560.19
2023-03-26T02:39:27.974Z,98564.00
2023-03-26T02:41:54.588Z,98556.22
2023-03-26T02:44:21.272Z,98544.63
2023-03-26T02:46:47.810Z,98546.22
2023-03-26T02:49:14.575Z,98531.63
2023-03-26T02:51:41.100Z,98530.88
2023-03-26T02:54:07.690Z,98534.66
2023-03-26T02:56:34.277Z,98523.38
2023-03-26T02:59:01.036Z,98520.22
2023-03-26T03:01:31.037Z,98517.31
2023-03-26T03:03:57.756Z,98509.03
2023-03-26T03:06:26.506Z,98507.44
2023-03-26T03:08:54.158Z,98503.34
2023-03-26T03:11:26.566Z,98499.22
2023-03-26T03:13:53.280Z,98486.25
2023-03-26T03:16:20.723Z,98476.75
2023-03-26T03:18:54.355Z,98468.19
2023-03-26T03:21:22.341Z,98467.22
2023-03-26T03:23:49.044Z,98457.84
2023-03-26T03:26:21.675Z,98454.94
2023-03-26T03:28:49.773Z,98445.84
2023-03-26T03:31:17.795Z,98441.09
2023-03-26T03:33:46.341Z,98441.41
2023-03-26T03:36:19.894Z,98436.94
2023-03-26T03:38:49.357Z,98421.88
2023-03-26T03:41:18.464Z,98424.38
2023-03-26T03:43:45.698Z,98424.22
2023-03-26T03:46:12.277Z,98424.81
2023-03-26T03:48:39.242Z,98420.03
2023-03-26T03:51:06.366Z,98416.84
2023-03-26T03:53:37.155Z,98408.28
2023-03-26T03:56:04.804Z,98402.41
2023-03-26T03:58:31.401Z,98404.31
2023-03-26T04:01:01.033Z,98400.34
2023-03-26T04:03:34.166Z,98401.72
2023-03-26T04:06:01.599Z,98388.59
2023-03-26T04:08:28.255Z,98382.03
2023-03-26T04:10:54.873Z,98372.66
2023-03-26T04:13:21.610Z,98373.28
2023-03-26T04:15:48.396Z,98357.75
2023-03-26T04:18:15.359Z,98362.16
2023-03-26T04:20:47.382Z,98364.34
2023-03-26T04:23:14.624Z,98356.50
2023-03-26T04:25:53.621Z,98344.03
2023-03-26T04:28:36.423Z,98339.63
2023-03-26T04:31:06.513Z,98322.06
2023-03-26T04:33:34.799Z,98311.47
2023-03-26T04:36:03.077Z,98308.16
2023-03-26T04:38:33.595Z,98305.47
2023-03-26T04:41:03.295Z,98308.03
2023-03-26T04:43:31.330Z,98309.13
2023-03-26T04:45:58.075Z,98308.66
2023-03-26T04:48:24.735Z,98308.66
2023-03-26T04:50:51.529Z,98303.28
2023-03-26T04:53:21.326Z,98299.47
2023-03-26T04:56:01.455Z,98296.91
2023-03-26T04:58:30.164Z,98296.28
2023-03-26T05:00:57.375Z,98285.44
2023-03-26T05:03:24.088Z,98281.53
2023-03-26T05:05:51.492Z,98266.94
2023-03-26T05:08:18.016Z,98247.22
2023-03-26T05:10:44.604Z,98231.34
2023-03-26T05:13:11.412Z,98236.84
2023-03-26T05:15:37.962Z,98238.44
2023-03-26T05:18:04.632Z,98217.88
2023-03-26T05:20:31.532Z,98203.00
2023-03-26T05:22:58.247Z,98187.19
2023-03-26T05:25:24.885Z,98168.28
2023-03-26T05:27:51.378Z,98168.31
2023-03-26T05:30:20.789Z,98160.25
2023-03-26T05:32:49.245Z,98165.66
2023-03-26T05:35:19.481Z,98155.72
2023-03-26T05:37:47.413Z,98158.34
2023-03-26T05:40:17.078Z,98151.91
2023-03-26T05:42:45.533Z,98154.59
2023-03-26T05:45:14.349Z,98140.94
2023-03-26T05:47:41.303Z,98135.59
2023-03-26T05:50:09.435Z,98123.72
2023-03-26T05:52:36.148Z,98116.81
2023-03-26T05:55:03.455Z,98104.09
2023-03-26T05:57:31.192Z,98101.75
2023-03-26T05:59:57.853Z,98099.59
2023-03-26T06:02:24.483Z,98110.28
2023-03-26T06:04:51.238Z,98104.34
2023-03-26T06:07:19.882Z,98090.06
2023-03-26T06:09:46.722Z,98082.03
2023-03-26T06:12:13.423Z,98070.69
2023-03-26T06:14:42.767Z,98091.03
2023-03-26T06:17:10.327Z,98109.84
2023-03-26T06:19:37.586Z,98107.56
2023-03-26T06:22:04.980Z,98087.97
2023-03-26T06:24:32.382Z,98087.38
2023-03-26T06:26:58.899Z,98067.88
2023-03-26T06:29:25.715Z,98078.50
2023-03-26T06:31:52.411Z,98082.47
2023-03-26T06:34:19.092Z,98068.00
2023-03-26T06:36:45.699Z,98063.72
2023-03-26T06:39:12.295Z,98052.63
2023-03-26T06:41:38.840Z,98051.50
2023-03-26T06:44:05.340Z,98055.94
2023-03-26T06:46:32.282Z,98063.72
2023-03-26T06:48:59.653Z,98055.28
2023-03-26T06:51:26.327Z,98058.47
2023-03-26T06:53:52.972Z,98054.81
2023-03-26T06:56:19.541Z,98051.19
2023-03-26T06:58:46.098Z,98049.16
2023-03-26T07:01:12.721Z,98050.88
2023-03-26T07:03:39.380Z,98053.44
2023-03-26T07:06:06.182Z,98047.56
2023-03-26T07:08:32.709Z,98037.91
2023-03-26T07:10:59.431Z,98035.84
2023-03-26T07:13:26.158Z,98029.97
2023-03-26T07:15:52.695Z,98033.44
2023-03-26T07:18:19.244Z,98042.63
2023-03-26T07:20:46.514Z,98037.22
2023-03-26T07:23:15.613Z,98034.34
2023-03-26T07:25:42.386Z,98037.34
2023-03-26T07:28:27.274Z,98033.50
2023-03-26T07:31:21.493Z,98023.97
2023-03-26T07:34:08.430Z,98024.88
2023-03-26T07:36:50.407Z,98031.00
2023-03-26T07:39:44.910Z,98021.50
2023-03-26T07:42:46.443Z,98028.97
2023-03-26T07:45:26.854Z,98023.84
2023-03-26T07:47:53.873Z,98015.38
2023-03-26T07:50:22.861Z,98018.09
2023-03-26T07:52:50.983Z,98020.13
2023-03-26T07:55:18.398Z,98030.63
2023-03-26T07:58:11.708Z,98038.56
2023-03-26T08:01:02.819Z,98037.63
2023-03-26T08:03:50.944Z,98021.44
2023-03-26T08:06:28.157Z,98013.66
2023-03-26T08:09:08.327Z,98013.53
2023-03-26T08:11:46.119Z,98022.22
2023-03-26T08:14:30.277Z,98017.81
2023-03-26T08:16:59.989Z,98011.72
2023-03-26T08:19:42.030Z,98020.56
2023-03-26T08:22:12.055Z,98037.03
2023-03-26T08:24:57.301Z,98039.69
2023-03-26T08:27:43.775Z,98045.38
2023-03-26T08:30:19.376Z,98043.44
2023-03-26T08:32:57.636Z,98022.28
2023-03-26T08:35:25.647Z,98030.13
2023-03-26T08:37:52.434Z,98032.31
2023-03-26T08:40:46.800Z,98033.22
2023-03-26T08:44:05.136Z,98024.84
2023-03-26T08:46:37.419Z,98041.97
2023-03-26T08:49:03.961Z,98047.59
2023-03-26T08:51:50.987Z,98053.25
2023-03-26T08:54:23.166Z,98033.09
2023-03-26T08:57:42.552Z,98060.75
2023-03-26T09:00:35.676Z,98072.53
2023-03-26T09:03:27.910Z,98078.38
2023-03-26T09:06:35.827Z,98089.94
2023-03-26T09:09:31.482Z,98088.88
2023-03-26T09:11:57.946Z,98081.97
2023-03-26T09:14:46.129Z,98080.66
2023-03-26T09:17:48.987Z,98084.84
2023-03-26T09:20:27.699Z,98076.38
2023-03-26T09:23:45.284Z,98090.38
2023-03-26T09:26:11.816Z,98089.72
2023-03-26T09:29:17.074Z,98095.78
2023-03-26T09:32:17.201Z,98085.59
2023-03-26T09:35:13.607Z,98081.09
2023-03-26T09:37:56.819Z,98086.94
2023-03-26T09:40:42.478Z,98086.91
2023-03-26T09:43:09.008Z,98082.13
2023-03-26T09:45:52.595Z,98097.50
2023-03-26T09:48:48.443Z,98092.91
2023-03-26T09:51:39.439Z,98088.94
2023-03-26T09:54:30.576Z,98089.75
2023-03-26T09:56:59.857Z,98086.97
2023-03-26T09:59:55.703Z,98092.56
2023-03-26T10:02:47.568Z,98093.66
2023-03-26T10:05:39.069Z,98094.31
2023-03-26T10:08:08.878Z,98091.91
2023-03-26T10:10:56.479Z,98098.25
2023-03-26T10:13:49.489Z,98095.69
2023-03-26T10:16:22.251Z,98105.38
2023-03-26T10:19:31.259Z,98095.88
2023-03-26T10:22:20.439Z,98106.22
2023-03-26T10:24:59.161Z,98118.28
2023-03-26T10:27:25.775Z,98095.88
2023-03-26T10:30:10.770Z,98104.06
2023-03-26T10:33:05.069Z,98099.88
2023-03-26T10:35:38.898Z,98109.63
2023-03-26T10:38:48.695Z,98096.84
2023-03-26T10:41:52.470Z,98091.91
2023-03-26T10:44:37.150Z,98087.66
2023-03-26T10:47:37.444Z,98080.44
2023-03-26T10:50:23.928Z,98083.88
2023-03-26T10:53:15.844Z,98078.66
2023-03-26T10:55:46.740Z,98072.34
2023-03-26T10:58:13.213Z,98069.03
2023-03-26T11:00:48.377Z,98064.09
2023-03-26T11:03:44.016Z,98067.25
2023-03-26T11:06:16.396Z,98073.47
2023-03-26T11:09:04.297Z,98071.09
2023-03-26T11:11:41.652Z,98072.97
2023-03-26T11:14:27.913Z,98083.97
2023-03-26T11:17:40.900Z,98068.03
2023-03-26T11:20:16.002Z,98082.88
2023-03-26T11:23:01.302Z,98083.56
2023-03-26T11:25:52.777Z,98078.34
2023-03-26T11:28:29.569Z,98067.66
2023-03-26T11:30:59.448Z,98073.13
2023-03-26T11:33:37.967Z,98058.59
2023-03-26T11:36:18.700Z,98060.03
2023-03-26T11:38:49.227Z,98056.41
2023-03-26T11:41:22.737Z,98054.28
2023-03-26T11:43:55.840Z,98061.41
2023-03-26T11:46:25.354Z,98062.31
2023-03-26T11:49:07.692Z,98067.72
2023-03-26T11:51:38.863Z,98053.50
2023-03-26T11:54:08.059Z,98051.25
2023-03-26T11:57:04.438Z,98060.16
2023-03-26T11:59:55.888Z,98053.38
2023-03-26T12:02:34.160Z,98053.78
2023-03-26T12:05:26.611Z,98061.16
2023-03-26T12:07:57.254Z,98047.84
2023-03-26T12:11:01.280Z,98057.69
2023-03-26T12:13:36.212Z,98050.78
2023-03-26T12:16:18.379Z,98051.81
2023-03-26T12:18:45.913Z,98049.88
2023-03-26T12:21:18.184Z,98047.84
2023-03-26T12:23:51.212Z,98046.22
2023-03-26T12:26:36.200Z,98052.78
2023-03-26T12:29:14.960Z,98045.78
2023-03-26T12:31:56.473Z,98051.88
2023-03-26T12:34:43.313Z,98037.19
2023-03-26T12:37:37.045Z,98038.28
2023-03-26T12:40:25.924Z,98054.69
2023-03-26T12:44:53.052Z,98058.56
2023-03-26T12:45:43.354Z,98055.78
2023-03-26T12:48:13.098Z,98050.34
2023-03-26T12:51:17.027Z,98055.09
2023-03-26T12:53:43.519Z,98066.38
2023-03-26T12:56:38.586Z,98051.94
2023-03-26T12:59:34.348Z,98053.28
2023-03-26T13:02:21.746Z,98071.78
2023-03-26T13:05:04.972Z,98058.59
2023-03-26T13:07:52.018Z,98052.38
2023-03-26T13:10:24.843Z,98062.78
2023-03-26T13:12:57.978Z,98063.69
2023-03-26T13:15:49.373Z,98059.63
2023-03-26T13:18:33.680Z,98051.59
2023-03-26T13:21:21.967Z,98056.22
2023-03-26T13:23:48.509Z,98051.81
2023-03-26T13:26:42.908Z,98055.44
2023-03-26T13:29:25.063Z,98049.44
2023-03-26T13:31:54.483Z,98035.91
2023-03-26T13:34:33.972Z,98030.59
2023-03-26T13:37:18.653Z,98030.13
2023-03-26T13:40:05.009Z,98029.50
2023-03-26T13:43:13.016Z,98022.38
2023-03-26T13:45:42.429Z,98012.47
2023-03-26T13:48:16.398Z,98024.03
2023-03-26T13:50:49.823Z,98028.69
2023-03-26T13:53:24.866Z,98013.38
2023-03-26T13:55:58.514Z,98042.88
2023-03-26T13:58:34.349Z,98059.25
2023-03-26T14:01:09.565Z,98060.19
2023-03-26T14:04:00.451Z,98083.94
2023-03-26T14:06:29.865Z,98101.69
2023-03-26T14:09:04.829Z,98095.66
2023-03-26T14:11:56.751Z,98103.38
2023-03-26T14:14:29.437Z,98142.53
2023-03-26T14:17:28.592Z,98124.31
2023-03-26T14:20:24.136Z,98120.34
2023-03-26T14:23:32.625Z,98110.22
2023-03-26T14:26:20.991Z,98117.19
2023-03-26T14:29:21.870Z,98111.31
2023-03-26T14:32:00.494Z,98105.28
2023-03-26T14:34:49.781Z,98111.47
2023-03-26T14:37:28.221Z,98108.63
2023-03-26T14:40:14.710Z,98101.00
2023-03-26T14:42:46.056Z,98089.13
2023-03-26T14:45:41.918Z,98097.84
2023-03-26T14:48:26.866Z,98116.06
2023-03-26T14:51:18.438Z,98108.94
2023-03-26T14:53:50.446Z,98099.44
2023-03-26T14:56:35.721Z,98100.72
2023-03-26T14:59:33.116Z,98102.44
2023-03-26T15:02:18.452Z,98099.72
2023-03-26T15:04:53.983Z,98092.44
2023-03-26T15:07:48.264Z,98100.69
2023-03-26T15:10:59.617Z,98097.19
2023-03-26T15:14:05.332Z,98105.75
2023-03-26T15:16:59.335Z,98103.84
2023-03-26T15:19:44.221Z,98117.47
2023-03-26T15:22:56.140Z,98125.41
2023-03-26T15:25:44.440Z,98123.81
2023-03-26T15:28:48.754Z,98127.94
2023-03-26T15:31:42.665Z,98140.16
2023-03-26T15:34:34.222Z,98130.31
2023-03-26T15:37:17.203Z,98135.38
2023-03-26T15:40:09.807Z,98151.72
2023-03-26T15:42:58.149Z,98163.50
2023-03-26T15:45:36.889Z,98155.25
2023-03-26T15:48:21.812Z,98147.59
2023-03-26T15:50:58.804Z,98161.09
2023-03-26T15:53:54.877Z,98155.84
2023-03-26T15:56:54.243Z,98147.63
2023-03-26T15:59:21.901Z,98157.94
2023-03-26T16:01:51.524Z,98153.78
2023-03-26T16:04:30.264Z,98149.84
2023-03-26T16:07:04.140Z,98153.34
2023-03-26T16:09:53.752Z,98155.88
2023-03-26T16:12:26.300Z,98158.09
2023-03-26T16:15:35.244Z,98144.44
2023-03-26T16:18:12.037Z,98143.84
2023-03-26T16:20:50.920Z,98137.75
2023-03-26T16:23:33.524Z,98141.81
2023-03-26T16:26:23.106Z,98134.69
2023-03-26T16:28:52.912Z,98144.56
2023-03-26T16:31:57.867Z,98146.97
2023-03-26T16:34:57.291Z,98146.84
2023-03-26T16:37:36.329Z,98147.34
2023-03-26T16:40:18.543Z,98145.47
2023-03-26T16:43:22.608Z,98155.16
2023-03-26T16:46:05.803Z,98155.53
2023-03-26T16:48:41.299Z,98171.25
2023-03-26T16:51:19.843Z,98175.19
2023-03-26T16:54:00.221Z,98170.78
2023-03-26T16:56:36.105Z,98183.94
2023-03-26T16:59:26.704Z,98180.28
2023-03-26T17:02:06.954Z,98183.16
2023-03-26T17:04:35.589Z,98189.84
2023-03-26T17:07:24.102Z,98189.66
2023-03-26T17:10:14.879Z,98189.53
2023-03-26T17:12:51.409Z,98190.13
2023-03-26T17:15:29.037Z,98191.41
2023-03-26T17:18:17.159Z,98197.13
2023-03-26T17:20:59.689Z,98196.00
2023-03-26T17:23:39.875Z,98197.06
2023-03-26T17:26:19.712Z,98200.56
2023-03-26T17:28:46.496Z,98201.75
2023-03-26T17:31:23.662Z,98211.41
2023-03-26T17:33:50.747Z,98197.31
2023-03-26T17:36:24.168Z,98204.91
2023-03-26T17:38:50.718Z,98203.00
2023-03-26T17:42:10.494Z,98198.53
2023-03-26T17:44:53.292Z,98212.16
2023-03-26T17:47:23.668Z,98202.63
2023-03-26T17:49:54.912Z,98207.53
2023-03-26T17:52:29.825Z,98215.44
2023-03-26T17:54:57.112Z,98217.00
2023-03-26T17:57:41.905Z,98219.41
2023-03-26T18:00:16.790Z,98230.19
2023-03-26T18:02:50.564Z,98226.56
2023-03-26T18:05:17.676Z,98236.53
2023-03-26T18:08:03.916Z,98235.25
2023-03-26T18:10:45.899Z,98232.25
2023-03-26T18:13:23.259Z,98241.91
2023-03-26T18:16:11.157Z,98251.28
2023-03-26T18:18:48.594Z,98264.41
2023-03-26T18:21:24.333Z,98263.50
2023-03-26T18:23:51.307Z,98262.41
2023-03-26T18:26:34.405Z,98275.38
2023-03-26T18:29:25.654Z,98282.78
2023-03-26T18:32:00.834Z,98283.59
2023-03-26T18:34:30.835Z,98290.88
2023-03-26T18:37:16.579Z,98288.81
2023-03-26T18:40:14.568Z,98284.81
2023-03-26T18:42:45.649Z,98298.00
2023-03-26T18:45:37.732Z,98298.19
2023-03-26T18:48:06.358Z,98317.50
2023-03-26T18:50:37.328Z,98304.53
2023-03-26T18:53:08.528Z,98318.28
2023-03-26T18:55:39.571Z,98320.97
2023-03-26T18:58:27.620Z,98332.72
2023-03-26T19:01:00.584Z,98327.91
2023-03-26T19:03:32.104Z,98330.94
2023-03-26T19:05:59.354Z,98333.75
2023-03-26T19:08:26.103Z,98337.16
2023-03-26T19:10:54.567Z,98341.72
2023-03-26T19:13:21.922Z,98345.63
2023-03-26T19:15:52.091Z,98346.84
2023-03-26T19:18:28.721Z,98350.13
2023-03-26T19:20:58.817Z,98345.38
2023-03-26T19:23:31.726Z,98362.13
2023-03-26T19:26:01.733Z,98354.66
2023-03-26T19:28:32.817Z,98356.38
2023-03-26T19:31:16.032Z,98365.66
2023-03-26T19:33:44.369Z,98368.16
2023-03-26T19:36:13.910Z,98364.31
2023-03-26T19:38:55.075Z,98371.88
2023-03-26T19:41:25.753Z,98372.97
2023-03-26T19:43:59.155Z,98379.47
2023-03-26T19:46:27.787Z,98391.81
2023-03-26T19:48:56.772Z,98395.59
2023-03-26T19:51:35.774Z,98401.56
2023-03-26T19:54:16.782Z,98402.66
2023-03-26T19:56:43.631Z,98406.16
2023-03-26T19:59:10.243Z,98408.34
2023-03-26T20:01:36.929Z,98412.31
2023-03-26T20:04:06.598Z,98416.09
2023-03-26T20:06:43.931Z,98418.78
2023-03-26T20:09:12.887Z,98425.59
2023-03-26T20:11:40.775Z,98439.03
2023-03-26T20:14:16.162Z,98440.91
2023-03-26T20:16:45.281Z,98434.44
2023-03-26T20:19:14.196Z,98436.34
2023-03-26T20:21:41.760Z,98448.19
2023-03-26T20:24:14.688Z,98444.22
2023-03-26T20:26:41.585Z,98455.28
2023-03-26T20:29:08.193Z,98467.13
2023-03-26T20:31:34.751Z,98470.94
2023-03-26T20:34:01.439Z,98484.06
2023-03-26T20:36:33.111Z,98473.31
2023-03-26T20:39:05.612Z,98477.09
2023-03-26T20:41:33.780Z,98488.13
2023-03-26T20:44:01.016Z,98488.94
2023-03-26T20:46:30.582Z,98482.47
2023-03-26T20:48:59.579Z,98492.94
2023-03-26T20:51:28.725Z,98488.34
2023-03-26T20:53:56.375Z,98490.25
2023-03-26T20:56:23.469Z,98498.00
2023-03-26T20:59:03.501Z,98498.59
2023-03-26T21:01:34.970Z,98504.78
2023-03-26T21:04:04.309Z,98503.78
2023-03-26T21:06:31.089Z,98509.97
2023-03-26T21:08:57.892Z,98505.19
2023-03-26T21:11:52.165Z,98512.75
2023-03-26T21:14:22.438Z,98520.50
2023-03-26T21:16:49.437Z,98536.84
2023-03-26T21:19:16.274Z,98543.00
2023-03-26T21:22:04.827Z,98549.22
2023-03-26T21:24:37.790Z,98555.97
2023-03-26T21:27:37.326Z,98553.28
2023-03-26T21:30:13.787Z,98558.16
2023-03-26T21:32:41.479Z,98556.28
2023-03-26T21:35:08.865Z,98559.75
2023-03-26T21:37:35.698Z,98565.34
2023-03-26T21:40:12.661Z,98571.81
2023-03-26T21:42:39.410Z,98579.88
2023-03-26T21:45:06.837Z,98582.56
2023-03-26T21:47:33.754Z,98590.88
2023-03-26T21:50:00.539Z,98590.06
2023-03-26T21:52:27.990Z,98600.22
2023-03-26T21:54:54.910Z,98603.41
2023-03-26T21:57:40.093Z,98620.53
2023-03-26T22:00:27.884Z,98622.94
2023-03-26T22:03:26.599Z,98628.59
2023-03-26T22:06:11.386Z,98635.09
2023-03-26T22:08:40.081Z,98637.22
2023-03-26T22:11:08.127Z,98651.16
2023-03-26T22:13:38.629Z,98655.44
2023-03-26T22:16:07.328Z,98659.72
2023-03-26T22:18:34.775Z,98664.03
2023-03-26T22:21:01.665Z,98662.94
2023-03-26T22:23:34.312Z,98668.81
2023-03-26T22:26:00.958Z,98670.91
2023-03-26T22:28:27.717Z,98676.78
2023-03-26T22:30:54.505Z,98673.00
2023-03-26T22:33:21.530Z,98685.34
2023-03-26T22:35:48.135Z,98692.34
2023-03-26T22:38:17.093Z,98695.34
2023-03-26T22:40:43.748Z,98699.41
2023-03-26T22:43:10.306Z,98719.34
2023-03-26T22:45:37.752Z,98709.44
2023-03-26T22:48:04.832Z,98713.53
2023-03-26T22:50:32.440Z,98710.03
2023-03-26T22:52:59.020Z,98718.41
2023-03-26T22:55:28.776Z,98718.97
2023-03-26T22:57:56.866Z,98728.72
2023-03-26T23:00:23.568Z,98735.53
2023-03-26T23:02:50.189Z,98742.28
2023-03-26T23:05:19.803Z,98747.44
2023-03-26T23:07:46.668Z,98749.91
2023-03-26T23:10:13.681Z,98764.97
2023-03-26T23:12:40.429Z,98768.25
2023-03-26T23:15:08.084Z,98776.91
2023-03-26T23:17:36.139Z,98791.41
2023-03-26T23:20:06.182Z,98793.03
2023-03-26T23:22:35.275Z,98802.16
2023-03-26T23:25:02.063Z,98807.53
2023-03-26T23:27:28.634Z,98820.72
2023-03-26T23:29:55.883Z,98832.84
2023-03-26T23:32:25.251Z,98849.84
2023-03-26T23:34:52.528Z,98859.06
2023-03-26T23:37:23.329Z,98858.03
2023-03-26T23:39:51.108Z,98877.50
2023-03-26T23:42:28.830Z,98869.22
2023-03-26T23:44:57.244Z,98884.88
2023-03-26T23:47:24.202Z,98892.44
2023-03-26T23:49:51.035Z,98894.63
2023-03-26T23:52:17.603Z,98900.78
2023-03-26T23:54:45.159Z,98908.06
2023-03-26T23:57:11.924Z,98910.81
2023-03-26T23:59:38.699Z,98923.19
